createdAt,value
2022-10-05T00:00:45.128Z,99.99
2022-10-05T00:02:49.607Z,99.99
2022-10-05T00:03:49.307Z,99.99
2022-10-05T00:05:53.151Z,99.99
2022-10-05T00:06:53.170Z,99.99
2022-10-05T00:08:57.656Z,99.99
2022-10-05T00:09:57.190Z,99.99
2022-10-05T00:11:50.118Z,99.99
2022-10-05T00:12:50.138Z,99.99
2022-10-05T00:14:54.622Z,99.99
2022-10-05T00:15:54.157Z,99.99
2022-10-05T00:17:58.166Z,99.99
2022-10-05T00:18:58.182Z,99.99
2022-10-05T00:21:02.674Z,99.99
2022-10-05T00:22:02.226Z,99.99
2022-10-05T00:24:06.232Z,99.99
2022-10-05T00:25:06.246Z,99.99
2022-10-05T00:27:10.732Z,99.99
2022-10-05T00:28:10.305Z,99.99
2022-10-05T00:30:14.280Z,99.99
2022-10-05T00:31:14.358Z,99.99
2022-10-05T00:33:18.783Z,99.99
2022-10-05T00:34:18.317Z,99.99
2022-10-05T00:36:22.356Z,99.99
2022-10-05T00:37:22.356Z,99.99
2022-10-05T00:39:26.830Z,99.99
2022-10-05T00:40:26.369Z,99.99
2022-10-05T00:42:19.304Z,99.99
2022-10-05T00:43:19.315Z,99.99
2022-10-05T00:45:23.808Z,99.99
2022-10-05T00:46:23.416Z,99.99
2022-10-05T00:48:27.364Z,99.99
2022-10-05T00:49:27.391Z,99.99
2022-10-05T00:51:31.866Z,99.99
2022-10-05T00:52:31.403Z,99.99
2022-10-05T00:54:35.412Z,99.99
2022-10-05T00:55:35.431Z,99.99
2022-10-05T00:57:39.914Z,99.99
2022-10-05T00:58:39.454Z,99.99
2022-10-05T01:00:43.455Z,99.99
2022-10-05T01:01:43.468Z,99.99
2022-10-05T01:03:47.965Z,99.99
2022-10-05T01:04:47.503Z,99.99
2022-10-05T01:06:51.514Z,99.99
2022-10-05T01:07:51.534Z,99.99
2022-10-05T01:09:56.024Z,99.99
2022-10-05T01:10:55.551Z,99.99
2022-10-05T01:12:59.565Z,99.99
2022-10-05T01:13:59.584Z,99.99
2022-10-05T01:16:04.128Z,99.99
2022-10-05T01:17:03.633Z,99.99
2022-10-05T01:18:56.779Z,99.99
2022-10-05T01:19:56.752Z,99.99
2022-10-05T01:21:50.229Z,99.99
2022-10-05T01:22:49.697Z,99.99
2022-10-05T01:24:53.709Z,99.99
2022-10-05T01:25:53.718Z,99.99
2022-10-05T01:27:58.261Z,99.99
2022-10-05T01:28:57.748Z,99.99
2022-10-05T01:31:01.757Z,99.99
2022-10-05T01:32:01.767Z,99.99
2022-10-05T01:34:11.181Z,99.99
2022-10-05T01:35:05.802Z,99.99
2022-10-05T01:37:09.807Z,99.99
2022-10-05T01:38:09.821Z,99.99
2022-10-05T01:40:14.316Z,99.99
2022-10-05T01:41:13.858Z,99.99
2022-10-05T01:43:17.880Z,99.99
2022-10-05T01:44:17.869Z,99.99
2022-10-05T01:46:22.456Z,99.99
2022-10-05T01:47:21.889Z,99.99
2022-10-05T01:49:25.909Z,99.99
2022-10-05T01:50:25.923Z,99.99
2022-10-05T01:52:19.401Z,99.99
2022-10-05T01:53:18.886Z,99.99
2022-10-05T01:55:22.878Z,99.99
2022-10-05T01:56:22.897Z,99.99
2022-10-05T01:58:27.427Z,99.99
2022-10-05T01:59:26.915Z,99.99
2022-10-05T02:01:30.992Z,99.99
2022-10-05T02:02:31.007Z,99.99
2022-10-05T02:05:03.244Z,99.99
2022-10-05T02:05:34.967Z,99.99
2022-10-05T02:07:38.990Z,99.99
2022-10-05T02:08:39.006Z,99.99
2022-10-05T02:10:43.494Z,99.99
2022-10-05T02:11:43.038Z,99.99
2022-10-05T02:13:47.035Z,99.99
2022-10-05T02:14:47.052Z,99.99
2022-10-05T02:16:51.542Z,99.99
2022-10-05T02:17:51.098Z,99.99
2022-10-05T02:19:55.083Z,99.99
2022-10-05T02:20:55.099Z,99.99
2022-10-05T02:22:59.590Z,99.99
2022-10-05T02:23:59.124Z,99.99
2022-10-05T02:26:03.154Z,99.99
2022-10-05T02:27:03.156Z,99.99
2022-10-05T02:29:07.658Z,99.99
2022-10-05T02:30:07.181Z,99.99
2022-10-05T02:32:00.115Z,99.99
2022-10-05T02:33:00.135Z,99.99
2022-10-05T02:35:04.624Z,99.99
2022-10-05T02:36:04.148Z,99.99
2022-10-05T02:37:57.730Z,99.99
2022-10-05T02:38:57.546Z,99.99
2022-10-05T02:41:02.049Z,99.99
2022-10-05T02:42:01.570Z,99.99
2022-10-05T02:44:05.583Z,99.99
2022-10-05T02:45:05.591Z,99.99
2022-10-05T02:47:10.087Z,99.99
2022-10-05T02:48:09.664Z,99.99
2022-10-05T02:50:13.680Z,99.99
2022-10-05T02:51:13.796Z,99.99
2022-10-05T02:53:18.195Z,99.99
2022-10-05T02:54:17.731Z,99.99
2022-10-05T02:56:21.741Z,99.99
2022-10-05T02:57:21.760Z,99.99
2022-10-05T02:59:26.249Z,99.99
2022-10-05T03:00:25.796Z,99.99
2022-10-05T03:02:19.325Z,99.99
2022-10-05T03:03:19.245Z,99.99
2022-10-05T03:04:19.266Z,99.99
2022-10-05T03:05:19.291Z,99.99
2022-10-05T03:06:19.314Z,99.99
2022-10-05T03:07:19.334Z,99.99
2022-10-05T03:08:19.362Z,99.99
2022-10-05T03:09:19.386Z,99.99
2022-10-05T03:10:19.408Z,99.99
2022-10-05T03:11:19.443Z,99.99
2022-10-05T03:12:19.454Z,99.99
2022-10-05T03:13:19.476Z,99.99
2022-10-05T03:14:19.501Z,99.99
2022-10-05T03:15:19.529Z,99.99
2022-10-05T03:16:19.610Z,99.99
2022-10-05T03:17:19.576Z,99.99
2022-10-05T03:18:19.593Z,99.99
2022-10-05T03:19:19.618Z,99.99
2022-10-05T03:20:19.645Z,99.99
2022-10-05T03:21:19.670Z,99.99
2022-10-05T03:22:19.693Z,99.99
2022-10-05T03:23:19.738Z,99.99
2022-10-05T03:24:19.736Z,99.99
2022-10-05T03:25:19.764Z,99.99
2022-10-05T03:26:19.783Z,99.99
2022-10-05T03:27:19.808Z,99.99
2022-10-05T03:28:19.860Z,99.99
2022-10-05T03:29:19.857Z,99.99
2022-10-05T03:30:19.878Z,99.99
2022-10-05T03:31:19.948Z,99.99
2022-10-05T03:32:19.936Z,99.99
2022-10-05T03:33:19.951Z,99.99
2022-10-05T03:34:19.990Z,99.99
2022-10-05T03:35:19.996Z,99.99
2022-10-05T03:36:20.024Z,99.99
2022-10-05T03:37:20.046Z,99.99
2022-10-05T03:38:20.095Z,99.99
2022-10-05T03:39:20.094Z,99.99
2022-10-05T03:40:20.112Z,99.99
2022-10-05T03:41:20.136Z,99.99
2022-10-05T03:42:20.158Z,99.99
2022-10-05T03:43:20.180Z,99.99
2022-10-05T03:44:20.205Z,99.99
2022-10-05T03:45:20.276Z,99.99
2022-10-05T03:46:20.341Z,99.99
2022-10-05T03:47:20.286Z,99.99
2022-10-05T03:48:20.301Z,99.99
2022-10-05T03:49:20.324Z,99.99
2022-10-05T03:50:20.347Z,99.99
2022-10-05T03:51:20.371Z,99.99
2022-10-05T03:52:20.393Z,99.99
2022-10-05T03:53:20.438Z,99.99
2022-10-05T03:54:20.497Z,99.99
2022-10-05T03:55:20.464Z,99.99
2022-10-05T03:56:20.486Z,99.99
2022-10-05T03:57:20.510Z,99.99
2022-10-05T03:58:20.534Z,99.99
2022-10-05T03:59:20.558Z,99.99
2022-10-05T04:00:20.580Z,99.99
2022-10-05T04:01:20.615Z,99.99
2022-10-05T04:02:20.678Z,99.99
2022-10-05T04:03:20.648Z,99.99
2022-10-05T04:04:20.677Z,99.99
2022-10-05T04:05:20.700Z,99.99
2022-10-05T04:06:20.720Z,99.99
2022-10-05T04:07:20.744Z,99.99
2022-10-05T04:08:20.765Z,99.99
2022-10-05T04:09:20.798Z,99.99
2022-10-05T04:10:20.813Z,99.99
2022-10-05T04:11:20.839Z,99.99
2022-10-05T04:12:20.863Z,99.99
2022-10-05T04:13:20.883Z,99.99
2022-10-05T04:14:20.907Z,99.99
2022-10-05T04:15:20.937Z,99.99
2022-10-05T04:16:21.055Z,99.99
2022-10-05T04:17:20.978Z,99.99
2022-10-05T04:18:20.997Z,99.99
2022-10-05T04:19:21.028Z,99.99
2022-10-05T04:20:21.049Z,99.99
2022-10-05T04:21:23.759Z,99.99
2022-10-05T04:22:21.103Z,99.99
2022-10-05T04:23:21.116Z,99.99
2022-10-05T04:24:21.141Z,99.99
2022-10-05T04:25:21.168Z,99.99
2022-10-05T04:26:21.191Z,99.99
2022-10-05T04:27:21.213Z,99.99
2022-10-05T04:28:21.286Z,99.99
2022-10-05T04:29:21.269Z,99.99
2022-10-05T04:30:21.283Z,99.99
2022-10-05T04:31:21.362Z,99.99
2022-10-05T04:32:21.325Z,99.99
2022-10-05T04:33:21.354Z,99.99
2022-10-05T04:34:21.376Z,99.99
2022-10-05T04:35:21.400Z,99.99
2022-10-05T04:36:21.420Z,99.99
2022-10-05T04:37:21.446Z,99.99
2022-10-05T04:38:21.468Z,99.99
2022-10-05T04:39:21.492Z,99.99
2022-10-05T04:40:21.517Z,99.99
2022-10-05T04:41:21.582Z,99.99
2022-10-05T04:42:21.750Z,99.99
2022-10-05T04:43:21.586Z,99.99
2022-10-05T04:44:21.606Z,99.99
2022-10-05T04:45:21.630Z,99.99
2022-10-05T04:46:21.695Z,99.99
2022-10-05T04:47:21.675Z,99.99
2022-10-05T04:48:21.704Z,99.99
2022-10-05T04:49:21.729Z,99.99
2022-10-05T04:50:21.749Z,99.99
2022-10-05T04:51:21.771Z,99.99
2022-10-05T04:52:21.795Z,99.99
2022-10-05T04:53:21.818Z,99.99
2022-10-05T04:54:21.842Z,99.99
2022-10-05T04:55:21.865Z,99.99
2022-10-05T04:56:21.888Z,99.99
2022-10-05T04:57:21.916Z,99.99
2022-10-05T04:58:21.939Z,99.99
2022-10-05T04:59:21.959Z,99.99
2022-10-05T05:00:21.979Z,99.99
2022-10-05T05:01:22.041Z,99.99
2022-10-05T05:02:22.025Z,99.99
2022-10-05T05:03:22.064Z,99.99
2022-10-05T05:04:22.073Z,99.99
2022-10-05T05:05:22.098Z,99.99
2022-10-05T05:06:22.120Z,99.99
2022-10-05T05:07:22.144Z,99.99
2022-10-05T05:08:22.170Z,99.99
2022-10-05T05:09:22.191Z,99.99
2022-10-05T05:10:22.211Z,99.99
2022-10-05T05:11:24.612Z,99.99
2022-10-05T05:12:22.279Z,99.99
2022-10-05T05:13:22.291Z,99.99
2022-10-05T05:14:22.306Z,99.99
2022-10-05T05:15:22.328Z,99.99
2022-10-05T05:16:22.394Z,99.99
2022-10-05T05:17:22.377Z,99.99
2022-10-05T05:18:22.397Z,99.99
2022-10-05T05:19:22.422Z,99.99
2022-10-05T05:20:22.448Z,99.99
2022-10-05T05:21:22.469Z,99.99
2022-10-05T05:22:22.491Z,99.99
2022-10-05T05:23:22.515Z,99.99
2022-10-05T05:24:22.537Z,99.99
2022-10-05T05:25:22.570Z,99.99
2022-10-05T05:26:22.585Z,99.99
2022-10-05T05:27:22.604Z,99.99
2022-10-05T05:28:22.662Z,99.99
2022-10-05T05:29:22.657Z,99.99
2022-10-05T05:30:22.680Z,99.99
2022-10-05T05:31:22.764Z,99.99
2022-10-05T05:32:22.724Z,99.99
2022-10-05T05:33:22.747Z,99.99
2022-10-05T05:34:22.765Z,99.99
2022-10-05T05:35:22.789Z,99.99
2022-10-05T05:36:23.562Z,99.99
2022-10-05T05:37:22.874Z,99.99
2022-10-05T05:38:22.864Z,99.99
2022-10-05T05:39:22.891Z,99.99
2022-10-05T05:40:22.913Z,99.99
2022-10-05T05:41:22.932Z,99.99
2022-10-05T05:42:22.954Z,99.99
2022-10-05T05:43:22.982Z,99.99
2022-10-05T05:44:23.003Z,99.99
2022-10-05T05:45:23.024Z,99.99
2022-10-05T05:46:38.766Z,99.99
2022-10-05T05:47:23.119Z,99.99
2022-10-05T05:48:23.095Z,99.99
2022-10-05T05:49:23.118Z,99.99
2022-10-05T05:50:23.141Z,99.99
2022-10-05T05:51:23.164Z,99.99
2022-10-05T05:52:23.188Z,99.99
2022-10-05T05:53:23.210Z,99.99
2022-10-05T05:54:23.241Z,99.99
2022-10-05T05:55:27.651Z,99.99
2022-10-05T05:56:23.285Z,99.99
2022-10-05T05:57:23.301Z,99.99
2022-10-05T05:58:23.326Z,99.99
2022-10-05T05:59:23.353Z,99.99
2022-10-05T06:00:23.376Z,99.99
2022-10-05T06:01:32.699Z,99.99
2022-10-05T06:02:23.542Z,99.99
2022-10-05T06:03:23.581Z,99.99
2022-10-05T06:04:23.467Z,99.99
2022-10-05T06:05:23.491Z,99.99
2022-10-05T06:06:23.517Z,99.99
2022-10-05T06:07:28.039Z,99.99
2022-10-05T06:08:23.560Z,99.99
2022-10-05T06:09:23.589Z,99.99
2022-10-05T06:10:23.609Z,99.99
2022-10-05T06:11:23.629Z,99.99
2022-10-05T06:12:23.665Z,99.99
2022-10-05T06:13:23.682Z,99.99
2022-10-05T06:14:23.706Z,99.99
2022-10-05T06:15:23.725Z,99.99
2022-10-05T06:16:23.801Z,99.99
2022-10-05T06:17:23.775Z,99.99
2022-10-05T06:18:23.797Z,99.99
2022-10-05T06:19:23.825Z,99.99
2022-10-05T06:20:23.845Z,99.99
2022-10-05T06:21:23.869Z,99.99
2022-10-05T06:22:23.893Z,99.99
2022-10-05T06:23:23.913Z,99.99
2022-10-05T06:24:23.944Z,99.99
2022-10-05T06:25:23.965Z,99.99
2022-10-05T06:26:23.991Z,99.99
2022-10-05T06:27:24.008Z,99.99
2022-10-05T06:28:24.065Z,99.99
2022-10-05T06:29:24.061Z,99.99
2022-10-05T06:30:24.082Z,99.99
2022-10-05T06:31:24.127Z,99.99
2022-10-05T06:32:24.133Z,99.99
2022-10-05T06:33:24.158Z,99.99
2022-10-05T06:34:24.189Z,99.99
2022-10-05T06:35:24.199Z,99.99
2022-10-05T06:36:24.225Z,99.99
2022-10-05T06:37:24.251Z,99.99
2022-10-05T06:38:24.277Z,99.99
2022-10-05T06:39:24.299Z,99.99
2022-10-05T06:40:24.322Z,99.99
2022-10-05T06:41:24.347Z,99.99
2022-10-05T06:42:24.371Z,99.99
2022-10-05T06:43:24.394Z,99.99
2022-10-05T06:44:24.419Z,99.99
2022-10-05T06:45:24.442Z,99.99
2022-10-05T06:46:24.507Z,99.99
2022-10-05T06:47:24.489Z,99.99
2022-10-05T06:48:24.516Z,99.99
2022-10-05T06:49:24.538Z,99.99
2022-10-05T06:50:24.565Z,99.99
2022-10-05T06:51:24.587Z,99.99
2022-10-05T06:52:24.614Z,99.99
2022-10-05T06:53:24.658Z,99.99
2022-10-05T06:54:24.661Z,99.99
2022-10-05T06:55:24.687Z,99.99
2022-10-05T06:56:24.710Z,99.99
2022-10-05T06:57:24.735Z,99.99
2022-10-05T06:58:24.760Z,99.99
2022-10-05T06:59:24.782Z,99.99
2022-10-05T07:00:24.983Z,99.99
2022-10-05T07:01:24.894Z,99.99
2022-10-05T07:02:24.912Z,99.99
2022-10-05T07:03:24.882Z,99.99
2022-10-05T07:04:24.912Z,99.99
2022-10-05T07:05:24.938Z,99.99
2022-10-05T07:06:24.960Z,99.99
2022-10-05T07:07:24.981Z,99.99
2022-10-05T07:08:25.005Z,99.99
2022-10-05T07:09:25.028Z,99.99
2022-10-05T07:10:25.106Z,99.99
2022-10-05T07:11:25.081Z,99.99
2022-10-05T07:12:25.108Z,99.99
2022-10-05T07:13:25.130Z,99.99
2022-10-05T07:14:25.156Z,99.99
2022-10-05T07:15:25.181Z,99.99
2022-10-05T07:16:25.228Z,99.99
2022-10-05T07:17:25.231Z,99.99
2022-10-05T07:18:25.253Z,99.99
2022-10-05T07:19:25.276Z,99.99
2022-10-05T07:20:25.309Z,99.99
2022-10-05T07:21:25.328Z,99.99
2022-10-05T07:22:26.619Z,99.99
2022-10-05T07:23:25.380Z,99.99
2022-10-05T07:24:25.405Z,99.99
2022-10-05T07:25:25.427Z,99.99
2022-10-05T07:26:25.454Z,99.99
2022-10-05T07:27:25.480Z,99.99
2022-10-05T07:28:25.562Z,99.99
2022-10-05T07:29:25.529Z,99.99
2022-10-05T07:30:25.558Z,99.99
2022-10-05T07:31:25.629Z,99.99
2022-10-05T07:32:25.605Z,99.99
2022-10-05T07:33:25.633Z,99.99
2022-10-05T07:34:25.662Z,99.91
2022-10-05T07:35:25.683Z,99.63
2022-10-05T07:36:25.708Z,99.99
2022-10-05T07:37:25.734Z,99.63
2022-10-05T07:38:25.758Z,99.43
2022-10-05T07:39:42.154Z,99.24
2022-10-05T07:40:25.817Z,98.96
2022-10-05T07:41:25.837Z,98.96
2022-10-05T07:42:25.860Z,98.96
2022-10-05T07:43:25.913Z,98.76
2022-10-05T07:44:25.913Z,98.76
2022-10-05T07:45:25.961Z,98.57
2022-10-05T07:46:25.961Z,98.10
2022-10-05T07:47:25.989Z,98.00
2022-10-05T07:48:26.019Z,97.80
2022-10-05T07:49:26.050Z,97.52
2022-10-05T07:50:26.064Z,96.94
2022-10-05T07:51:26.090Z,96.47
2022-10-05T07:52:27.570Z,96.66
2022-10-05T07:53:26.146Z,96.37
2022-10-05T07:54:26.213Z,96.56
2022-10-05T07:55:26.199Z,95.98
2022-10-05T07:56:26.238Z,96.18
2022-10-05T07:57:26.247Z,95.98
2022-10-05T07:58:26.272Z,96.51
2022-10-05T07:59:26.295Z,96.22
2022-10-05T08:00:26.324Z,95.94
2022-10-05T08:01:26.410Z,95.56
2022-10-05T08:02:26.453Z,95.07
2022-10-05T08:03:26.399Z,95.26
2022-10-05T08:04:26.428Z,95.36
2022-10-05T08:05:26.454Z,95.56
2022-10-05T08:06:26.477Z,95.36
2022-10-05T08:07:26.503Z,95.26
2022-10-05T08:08:26.531Z,95.36
2022-10-05T08:09:26.553Z,94.50
2022-10-05T08:10:26.582Z,94.59
2022-10-05T08:11:26.605Z,94.45
2022-10-05T08:12:26.632Z,94.31
2022-10-05T08:13:26.657Z,93.73
2022-10-05T08:14:26.687Z,93.93
2022-10-05T08:15:26.710Z,93.16
2022-10-05T08:16:26.769Z,92.77
2022-10-05T08:17:26.762Z,92.72
2022-10-05T08:18:26.788Z,92.68
2022-10-05T08:19:26.812Z,92.58
2022-10-05T08:20:26.844Z,92.72
2022-10-05T08:21:26.866Z,92.49
2022-10-05T08:22:26.891Z,92.77
2022-10-05T08:23:26.918Z,92.68
2022-10-05T08:24:26.945Z,93.21
2022-10-05T08:25:26.969Z,92.58
2022-10-05T08:26:26.996Z,92.24
2022-10-05T08:27:27.027Z,92.10
2022-10-05T08:28:27.100Z,92.01
2022-10-05T08:29:27.073Z,92.10
2022-10-05T08:30:27.102Z,92.24
2022-10-05T08:31:27.188Z,92.58
2022-10-05T08:32:27.152Z,92.49
2022-10-05T08:33:27.184Z,92.39
2022-10-05T08:34:27.202Z,92.20
2022-10-05T08:35:27.230Z,92.30
2022-10-05T08:36:27.256Z,92.20
2022-10-05T08:37:27.291Z,91.34
2022-10-05T08:38:27.307Z,91.34
2022-10-05T08:39:27.333Z,91.43
2022-10-05T08:40:27.359Z,92.20
2022-10-05T08:41:27.389Z,91.91
2022-10-05T08:42:27.424Z,91.72
2022-10-05T08:43:30.587Z,92.20
2022-10-05T08:44:27.462Z,92.30
2022-10-05T08:45:27.485Z,92.49
2022-10-05T08:46:27.620Z,93.26
2022-10-05T08:47:27.539Z,92.77
2022-10-05T08:48:27.564Z,92.68
2022-10-05T08:49:28.982Z,92.87
2022-10-05T08:50:27.617Z,92.77
2022-10-05T08:51:27.641Z,92.68
2022-10-05T08:52:27.668Z,93.44
2022-10-05T08:53:27.693Z,93.44
2022-10-05T08:54:27.718Z,92.68
2022-10-05T08:55:27.745Z,92.68
2022-10-05T08:56:28.917Z,92.97
2022-10-05T08:57:27.797Z,93.35
2022-10-05T08:58:27.836Z,92.87
2022-10-05T08:59:27.849Z,93.01
2022-10-05T09:00:27.874Z,92.49
2022-10-05T09:01:27.921Z,92.77
2022-10-05T09:02:27.980Z,92.72
2022-10-05T09:03:32.152Z,92.05
2022-10-05T09:04:27.975Z,92.24
2022-10-05T09:05:28.001Z,92.34
2022-10-05T09:06:28.029Z,92.05
2022-10-05T09:07:28.088Z,91.77
2022-10-05T09:08:28.077Z,91.00
2022-10-05T09:09:28.103Z,92.05
2022-10-05T09:10:28.134Z,92.05
2022-10-05T09:11:28.198Z,91.38
2022-10-05T09:12:28.199Z,91.19
2022-10-05T09:13:28.209Z,91.00
2022-10-05T09:14:28.242Z,90.52
2022-10-05T09:15:28.293Z,90.18
2022-10-05T09:16:28.289Z,89.75
2022-10-05T09:17:28.316Z,89.70
2022-10-05T09:18:28.341Z,89.99
2022-10-05T09:19:28.389Z,90.18
2022-10-05T09:20:28.398Z,89.70
2022-10-05T09:21:28.421Z,89.99
2022-10-05T09:22:28.446Z,90.28
2022-10-05T09:23:28.471Z,89.46
2022-10-05T09:24:28.501Z,88.49
2022-10-05T09:25:28.526Z,88.74
2022-10-05T09:26:28.559Z,88.40
2022-10-05T09:27:28.581Z,87.92
2022-10-05T09:28:28.636Z,88.59
2022-10-05T09:29:28.631Z,88.49
2022-10-05T09:30:28.672Z,88.59
2022-10-05T09:31:28.726Z,87.82
2022-10-05T09:32:28.713Z,87.82
2022-10-05T09:33:28.741Z,87.58
2022-10-05T09:34:28.765Z,87.68
2022-10-05T09:35:28.803Z,87.19
2022-10-05T09:36:28.821Z,86.81
2022-10-05T09:37:28.848Z,87.19
2022-10-05T09:38:28.876Z,86.14
2022-10-05T09:39:28.905Z,86.14
2022-10-05T09:40:28.940Z,86.14
2022-10-05T09:41:28.958Z,86.14
2022-10-05T09:42:28.985Z,85.22
2022-10-05T09:43:29.026Z,85.71
2022-10-05T09:44:29.039Z,85.61
2022-10-05T09:45:29.067Z,85.71
2022-10-05T09:46:29.196Z,85.80
2022-10-05T09:47:29.122Z,85.61
2022-10-05T09:48:29.155Z,84.64
2022-10-05T09:49:29.181Z,85.03
2022-10-05T09:50:29.203Z,84.45
2022-10-05T09:51:29.234Z,84.59
2022-10-05T09:52:29.257Z,83.83
2022-10-05T09:53:29.291Z,83.49
2022-10-05T09:54:29.314Z,83.83
2022-10-05T09:55:29.348Z,83.15
2022-10-05T09:56:29.375Z,83.53
2022-10-05T09:57:29.405Z,83.34
2022-10-05T09:58:29.436Z,82.86
2022-10-05T09:59:29.454Z,82.76
2022-10-05T10:00:29.484Z,83.63
2022-10-05T10:01:36.811Z,83.73
2022-10-05T10:03:23.063Z,82.76
2022-10-05T10:04:22.675Z,83.15
2022-10-05T10:06:26.701Z,82.86
2022-10-05T10:07:26.718Z,82.67
2022-10-05T10:09:33.071Z,81.94
2022-10-05T10:10:30.758Z,81.71
2022-10-05T10:12:23.705Z,81.71
2022-10-05T10:13:23.732Z,81.71
2022-10-05T10:15:28.225Z,80.50
2022-10-05T10:16:27.766Z,80.94
2022-10-05T10:18:32.382Z,81.71
2022-10-05T10:19:32.009Z,80.94
2022-10-05T10:21:36.507Z,81.42
2022-10-05T10:22:39.596Z,81.13
2022-10-05T10:24:40.071Z,82.04
2022-10-05T10:25:40.094Z,81.84
2022-10-05T10:27:46.250Z,80.50
2022-10-05T10:28:44.143Z,80.60
2022-10-05T10:30:48.218Z,80.50
2022-10-05T10:31:48.487Z,80.60
2022-10-05T10:33:52.693Z,80.69
2022-10-05T10:34:52.246Z,80.69
2022-10-05T10:36:56.303Z,80.69
2022-10-05T10:37:56.319Z,80.60
2022-10-05T10:40:01.321Z,80.15
2022-10-05T10:41:00.363Z,80.54
2022-10-05T10:43:04.390Z,80.06
2022-10-05T10:44:04.407Z,79.77
2022-10-05T10:46:08.941Z,79.67
2022-10-05T10:47:08.466Z,79.58
2022-10-05T10:49:12.474Z,79.58
2022-10-05T10:50:12.495Z,79.28
2022-10-05T10:52:05.979Z,78.61
2022-10-05T10:53:05.465Z,78.81
2022-10-05T10:55:09.550Z,78.65
2022-10-05T10:56:09.533Z,78.94
2022-10-05T10:58:16.281Z,79.13
2022-10-05T10:59:13.580Z,79.38
2022-10-05T11:01:17.626Z,78.46
2022-10-05T11:02:17.751Z,78.27
2022-10-05T11:04:22.131Z,78.65
2022-10-05T11:05:21.671Z,78.88
2022-10-05T11:07:25.703Z,78.31
2022-10-05T11:08:25.723Z,77.83
2022-10-05T11:10:30.221Z,77.25
2022-10-05T11:11:29.762Z,77.53
2022-10-05T11:13:33.787Z,76.86
2022-10-05T11:14:33.840Z,77.34
2022-10-05T11:16:38.312Z,77.63
2022-10-05T11:17:37.862Z,76.96
2022-10-05T11:20:02.494Z,77.44
2022-10-05T11:20:41.901Z,77.06
2022-10-05T11:22:35.389Z,76.76
2022-10-05T11:23:38.810Z,76.67
2022-10-05T11:25:38.889Z,76.48
2022-10-05T11:26:38.938Z,76.48
2022-10-05T11:28:43.466Z,76.76
2022-10-05T11:29:42.966Z,76.48
2022-10-05T11:31:35.980Z,77.44
2022-10-05T11:32:35.920Z,76.96
2022-10-05T11:34:40.422Z,77.25
2022-10-05T11:35:39.970Z,76.38
2022-10-05T11:37:43.986Z,76.80
2022-10-05T11:38:44.004Z,76.96
2022-10-05T11:40:37.489Z,76.32
2022-10-05T11:41:37.179Z,76.80
2022-10-05T11:43:41.195Z,76.32
2022-10-05T11:44:41.212Z,76.32
2022-10-05T11:46:45.777Z,75.45
2022-10-05T11:47:45.258Z,75.36
2022-10-05T11:49:49.278Z,75.45
2022-10-05T11:50:49.303Z,75.74
2022-10-05T11:52:53.804Z,75.55
2022-10-05T11:53:53.344Z,75.45
2022-10-05T11:55:57.382Z,74.68
2022-10-05T11:56:57.703Z,75.16
2022-10-05T11:59:03.397Z,75.36
2022-10-05T12:00:01.446Z,75.93
2022-10-05T12:01:54.400Z,75.84
2022-10-05T12:02:54.482Z,75.07
2022-10-05T12:06:02.939Z,75.36
2022-10-05T12:07:02.450Z,75.45
2022-10-05T12:09:06.474Z,74.78
2022-10-05T12:10:06.490Z,75.26
2022-10-05T12:11:59.974Z,74.84
2022-10-05T12:12:59.861Z,75.13
2022-10-05T12:15:03.484Z,74.74
2022-10-05T12:16:03.514Z,74.45
2022-10-05T12:18:08.005Z,74.26
2022-10-05T12:19:07.546Z,74.58
2022-10-05T12:21:11.572Z,74.65
2022-10-05T12:22:11.590Z,74.58
2022-10-05T12:24:16.091Z,75.16
2022-10-05T12:25:15.633Z,74.88
2022-10-05T12:27:19.657Z,75.36
2022-10-05T12:28:19.704Z,75.65
2022-10-05T12:30:24.193Z,74.58
2022-10-05T12:31:23.777Z,74.68
2022-10-05T12:33:27.776Z,74.20
2022-10-05T12:34:27.798Z,73.62
2022-10-05T12:36:52.439Z,74.01
2022-10-05T12:37:31.864Z,74.20
2022-10-05T12:39:35.887Z,74.68
2022-10-05T12:40:35.906Z,75.74
2022-10-05T12:42:29.403Z,74.40
2022-10-05T12:43:28.884Z,73.58
2022-10-05T12:45:32.957Z,74.26
2022-10-05T12:46:32.925Z,74.74
2022-10-05T12:48:37.436Z,75.71
2022-10-05T12:49:36.977Z,74.74
2022-10-05T12:51:41.000Z,74.74
2022-10-05T12:52:41.021Z,74.84
2022-10-05T12:54:45.514Z,75.42
2022-10-05T12:55:45.071Z,75.71
2022-10-05T12:56:45.099Z,75.71
2022-10-05T12:57:45.128Z,76.09
2022-10-05T12:58:45.158Z,74.74
2022-10-05T12:59:45.181Z,74.45
2022-10-05T13:00:45.235Z,74.80
2022-10-05T13:01:45.271Z,74.90
2022-10-05T13:02:45.270Z,75.32
2022-10-05T13:03:45.296Z,75.51
2022-10-05T13:04:45.327Z,75.09
2022-10-05T13:05:45.356Z,75.71
2022-10-05T13:06:45.383Z,75.28
2022-10-05T13:07:45.409Z,75.42
2022-10-05T13:08:45.439Z,75.38
2022-10-05T13:09:45.470Z,75.42
2022-10-05T13:10:45.498Z,75.48
2022-10-05T13:11:45.527Z,75.09
2022-10-05T13:12:45.552Z,75.38
2022-10-05T13:13:45.587Z,75.48
2022-10-05T13:14:45.617Z,74.61
2022-10-05T13:15:45.637Z,75.23
2022-10-05T13:16:45.739Z,74.41
2022-10-05T13:17:45.696Z,74.45
2022-10-05T13:18:45.723Z,74.41
2022-10-05T13:19:45.749Z,74.71
2022-10-05T13:20:45.781Z,74.61
2022-10-05T13:21:45.811Z,74.51
2022-10-05T13:22:45.837Z,74.80
2022-10-05T13:23:45.866Z,74.41
2022-10-05T13:24:45.890Z,74.80
2022-10-05T13:25:45.922Z,74.80
2022-10-05T13:26:45.947Z,75.38
2022-10-05T13:27:45.974Z,75.48
2022-10-05T13:28:46.010Z,75.38
2022-10-05T13:29:46.033Z,75.19
2022-10-05T13:30:46.064Z,75.19
2022-10-05T13:31:46.124Z,75.38
2022-10-05T13:32:46.117Z,75.96
2022-10-05T13:33:46.152Z,75.28
2022-10-05T13:34:46.172Z,74.90
2022-10-05T13:35:46.202Z,75.48
2022-10-05T13:36:46.231Z,75.03
2022-10-05T13:37:46.259Z,74.61
2022-10-05T13:38:46.286Z,74.51
2022-10-05T13:39:46.310Z,74.51
2022-10-05T13:40:46.339Z,74.71
2022-10-05T13:41:46.371Z,74.41
2022-10-05T13:42:46.395Z,74.99
2022-10-05T13:43:46.426Z,74.84
2022-10-05T13:44:46.457Z,74.55
2022-10-05T13:45:46.538Z,74.55
2022-10-05T13:46:46.511Z,74.36
2022-10-05T13:47:46.540Z,74.65
2022-10-05T13:48:46.570Z,74.41
2022-10-05T13:50:46.625Z,74.74
2022-10-05T13:51:46.655Z,74.71
2022-10-05T13:52:46.680Z,74.71
2022-10-05T13:53:46.711Z,75.03
2022-10-05T13:54:46.736Z,74.45
2022-10-05T13:55:46.765Z,74.61
2022-10-05T13:56:46.795Z,74.22
2022-10-05T13:57:46.820Z,74.90
2022-10-05T13:58:46.848Z,74.90
2022-10-05T13:59:46.916Z,75.23
2022-10-05T14:00:46.904Z,75.23
2022-10-05T14:01:47.004Z,75.23
2022-10-05T14:02:46.961Z,75.51
2022-10-05T14:03:46.989Z,75.32
2022-10-05T14:04:47.023Z,74.74
2022-10-05T14:05:47.047Z,74.74
2022-10-05T14:06:47.072Z,75.23
2022-10-05T14:07:47.117Z,74.93
2022-10-05T14:08:47.133Z,74.55
2022-10-05T14:09:47.161Z,74.45
2022-10-05T14:10:47.189Z,74.36
2022-10-05T14:11:47.244Z,74.84
2022-10-05T14:12:47.243Z,75.80
2022-10-05T14:13:47.273Z,75.61
2022-10-05T14:14:47.300Z,75.13
2022-10-05T14:15:47.325Z,75.23
2022-10-05T14:16:47.479Z,74.74
2022-10-05T14:17:47.379Z,75.13
2022-10-05T14:18:47.410Z,74.74
2022-10-05T14:19:47.446Z,75.32
2022-10-05T14:20:47.476Z,75.13
2022-10-05T14:21:47.500Z,75.23
2022-10-05T14:22:47.524Z,74.74
2022-10-05T14:23:47.552Z,74.84
2022-10-05T14:24:47.577Z,75.13
2022-10-05T14:25:47.609Z,75.13
2022-10-05T14:26:47.637Z,74.93
2022-10-05T14:27:47.672Z,75.51
2022-10-05T14:28:47.700Z,75.51
2022-10-05T14:29:47.730Z,75.61
2022-10-05T14:30:53.433Z,75.42
2022-10-05T14:31:47.811Z,75.32
2022-10-05T14:32:47.804Z,75.13
2022-10-05T14:33:47.831Z,75.03
2022-10-05T14:34:47.863Z,74.74
2022-10-05T14:35:47.901Z,74.93
2022-10-05T14:36:47.925Z,75.03
2022-10-05T14:37:47.944Z,75.42
2022-10-05T14:38:47.975Z,75.23
2022-10-05T14:39:48.006Z,75.03
2022-10-05T14:40:48.034Z,75.42
2022-10-05T14:41:48.058Z,75.99
2022-10-05T14:42:48.242Z,75.61
2022-10-05T14:43:48.114Z,75.71
2022-10-05T14:44:48.149Z,75.61
2022-10-05T14:45:48.197Z,75.99
2022-10-05T14:46:48.204Z,76.09
2022-10-05T14:47:48.234Z,75.90
2022-10-05T14:48:48.259Z,76.09
2022-10-05T14:49:48.299Z,76.09
2022-10-05T14:50:48.319Z,75.99
2022-10-05T14:51:48.346Z,75.61
2022-10-05T14:52:51.639Z,76.03
2022-10-05T14:53:48.400Z,76.03
2022-10-05T14:54:48.426Z,75.71
2022-10-05T14:55:48.457Z,75.42
2022-10-05T14:56:48.485Z,76.32